Time;durP1;ratioP1;P1;durP2;ratioP2;P2;SDS_P1;SDS_P2;PMS_P1;PMS_P2;Temp;Humidity;BMP_temperature;BMP_pressure;BME280_temperature;BME280_humidity;BME280_pressure;Samples;Min_cycle;Max_cycle;Signal;HPM_P1;HPM_P2
2024/01/02 00:00:09;;;;;;;7.90;4.80;;;;;;;5.05;61.98;100591.65;107254;1257;97917;-69
2024/01/02 00:02:59;;;;;;;6.30;4.80;;;;;;;5.05;61.86;100590.02;107247;1257;98373;-70
2024/01/02 00:05:28;;;;;;;10.10;4.70;;;;;;;5.06;62.01;100584.64;107307;1257;112096;-70
2024/01/02 00:07:57;;;;;;;7.20;4.80;;;;;;;5.06;61.87;100589.41;107269;1257;108971;-68
2024/01/02 00:10:26;;;;;;;7.60;4.90;;;;;;;5.06;61.81;100593.68;107209;1257;107065;-68
2024/01/02 00:12:58;;;;;;;7.50;4.50;;;;;;;5.08;61.40;100597.32;107199;1259;97832;-68
2024/01/02 00:15:26;;;;;;;7.90;4.80;;;;;;;5.09;61.39;100599.87;107354;1257;98366;-68
2024/01/02 00:17:54;;;;;;;9.30;4.90;;;;;;;5.11;61.32;100605.06;107206;1257;111663;-68
2024/01/02 00:20:23;;;;;;;7.20;5.10;;;;;;;5.14;60.80;100609.36;107233;1257;107493;-69
2024/01/02 00:22:52;;;;;;;8.90;4.50;;;;;;;5.16;60.72;100610.95;107223;1259;107747;-68
2024/01/02 00:25:20;;;;;;;6.60;4.20;;;;;;;5.20;60.55;100616.90;107196;1259;97983;-68
2024/01/02 00:27:48;;;;;;;6.70;4.50;;;;;;;5.21;60.48;100615.41;107236;1258;97389;-68
2024/01/02 00:30:16;;;;;;;6.80;4.20;;;;;;;5.21;60.49;100618.13;107294;1259;111011;-68
2024/01/02 00:32:45;;;;;;;5.90;3.80;;;;;;;5.20;60.39;100619.79;107259;1259;108214;-67
2024/01/02 00:35:14;;;;;;;5.90;4.10;;;;;;;5.18;60.36;100618.68;107094;1260;108448;-68
2024/01/02 00:37:42;;;;;;;7.20;4.30;;;;;;;5.17;60.56;100617.65;107261;1260;97857;-69
2024/01/02 00:40:11;;;;;;;8.00;4.50;;;;;;;5.18;60.65;100624.85;107231;1257;97946;-69
2024/01/02 00:42:40;;;;;;;8.60;4.80;;;;;;;5.18;60.47;100626.30;107194;1256;112184;-68
2024/01/02 00:45:09;;;;;;;8.90;4.90;;;;;;;5.15;60.49;100630.60;107105;1258;109218;-68
2024/01/02 00:47:37;;;;;;;5.60;3.90;;;;;;;5.13;60.44;100635.52;107285;1257;107224;-69
2024/01/02 00:50:06;;;;;;;5.70;4.20;;;;;;;5.12;60.37;100638.64;107240;1259;97832;-67
2024/01/02 00:52:35;;;;;;;5.80;4.10;;;;;;;5.10;60.63;100641.79;107308;1260;98383;-68
2024/01/02 00:55:05;;;;;;;7.30;4.30;;;;;;;5.08;60.47;100650.07;107213;1257;111907;-68
2024/01/02 00:57:33;;;;;;;6.00;4.40;;;;;;;5.06;60.78;100649.85;107296;1257;107890;-69
2024/01/02 01:00:04;;;;;;;7.00;4.10;;;;;;;5.04;60.75;100648.04;107263;1261;106746;-69
2024/01/02 01:02:33;;;;;;;7.40;4.40;;;;;;;4.99;60.86;100648.67;107302;1258;97851;-68
2024/01/02 01:05:01;;;;;;;6.40;4.00;;;;;;;4.95;60.92;100645.46;107248;1260;98366;-69
2024/01/02 01:07:30;;;;;;;6.80;3.80;;;;;;;4.88;60.90;100647.30;107235;1259;110978;-69
2024/01/02 01:09:58;;;;;;;7.60;4.20;;;;;;;4.84;60.96;100648.25;107278;1257;107601;-69
2024/01/02 01:12:27;;;;;;;9.60;4.90;;;;;;;4.84;61.10;100649.89;107235;1262;108601;-70
2024/01/02 01:14:55;;;;;;;9.40;4.50;;;;;;;4.82;61.41;100652.48;107218;1257;98580;-67
2024/01/02 01:17:23;;;;;;;7.10;4.20;;;;;;;4.77;61.11;100650.88;107139;1255;97755;-69
2024/01/02 01:19:52;;;;;;;7.80;4.40;;;;;;;4.69;61.12;100648.02;107278;1258;110393;-68
2024/01/02 01:22:20;;;;;;;7.20;4.90;;;;;;;4.60;60.98;100654.15;107239;1257;107508;-68
2024/01/02 01:24:49;;;;;;;7.90;5.20;;;;;;;4.52;61.33;100651.64;107275;1257;107704;-67
2024/01/02 01:27:17;;;;;;;8.00;4.80;;;;;;;4.42;61.55;100652.64;107147;1261;97857;-68
2024/01/02 01:29:46;;;;;;;7.10;4.70;;;;;;;4.31;61.75;100653.18;107271;1260;97937;-69
2024/01/02 01:32:14;;;;;;;7.30;5.00;;;;;;;4.20;61.91;100646.91;107270;1258;111874;-68
2024/01/02 01:34:43;;;;;;;8.50;4.30;;;;;;;4.19;62.46;100641.85;107217;1257;108560;-67
2024/01/02 01:37:11;;;;;;;9.30;5.00;;;;;;;4.26;62.47;100640.55;107219;1256;108457;-67
2024/01/02 01:39:40;;;;;;;7.60;4.70;;;;;;;4.28;62.30;100642.02;107236;1257;98601;-69
2024/01/02 01:42:08;;;;;;;6.70;4.30;;;;;;;4.23;62.37;100639.98;107247;1258;97835;-68
2024/01/02 01:44:37;;;;;;;8.80;4.70;;;;;;;4.16;62.27;100644.50;107245;1257;112402;-68
2024/01/02 01:47:05;;;;;;;7.00;4.80;;;;;;;4.08;62.42;100645.17;107224;1257;108369;-68
2024/01/02 01:49:34;;;;;;;6.90;4.90;;;;;;;4.03;62.55;100643.23;107254;1257;108783;-67
2024/01/02 01:52:02;;;;;;;7.50;4.40;;;;;;;4.00;62.99;100649.21;107225;1262;97851;-68
2024/01/02 01:54:32;;;;;;;7.30;4.50;;;;;;;4.00;63.26;100651.90;107018;1263;98357;-69
2024/01/02 01:57:00;;;;;;;6.90;4.30;;;;;;;3.98;63.56;100655.95;107281;1257;112258;-68
2024/01/02 01:59:29;;;;;;;6.90;4.70;;;;;;;3.96;63.40;100659.61;107242;1257;107561;-68
2024/01/02 02:02:00;;;;;;;8.70;5.00;;;;;;;3.95;63.68;100663.05;107210;1257;108696;-69
2024/01/02 02:04:31;;;;;;;12.10;5.00;;;;;;;3.96;63.90;100675.08;107182;1257;97851;-67
2024/01/02 02:06:59;;;;;;;6.80;4.40;;;;;;;3.95;63.98;100667.64;107249;1258;97843;-68
2024/01/02 02:09:27;;;;;;;9.10;4.80;;;;;;;3.94;64.05;100671.27;107226;1258;111478;-68
2024/01/02 02:11:55;;;;;;;10.50;4.80;;;;;;;3.89;63.87;100667.64;107122;1258;109323;-68
2024/01/02 02:14:25;;;;;;;7.70;4.90;;;;;;;3.88;64.17;100662.92;107312;1257;108342;-68
2024/01/02 02:16:54;;;;;;;10.80;5.30;;;;;;;3.90;64.16;100656.77;107262;1256;97845;-68
2024/01/02 02:19:23;;;;;;;11.40;6.60;;;;;;;3.92;64.53;100648.89;107252;1257;98366;-67
2024/01/02 02:21:52;;;;;;;14.90;8.20;;;;;;;3.92;64.26;100643.36;107117;1259;111076;-67
2024/01/02 02:24:21;;;;;;;11.30;5.80;;;;;;;3.91;64.25;100643.77;107130;1257;107287;-68
2024/01/02 02:26:49;;;;;;;9.40;5.50;;;;;;;3.85;63.99;100642.37;107111;1260;108403;-67
2024/01/02 02:29:18;;;;;;;8.40;5.20;;;;;;;3.76;63.91;100641.36;107239;1257;99415;-69
2024/01/02 02:31:46;;;;;;;11.00;5.20;;;;;;;3.68;63.85;100639.71;107273;1257;98537;-68
2024/01/02 02:34:14;;;;;;;7.40;5.40;;;;;;;3.61;64.07;100643.17;107229;1257;111647;-68
2024/01/02 02:36:44;;;;;;;9.90;4.90;;;;;;;3.53;63.93;100644.85;107267;1259;108625;-69
2024/01/02 02:39:13;;;;;;;11.50;5.30;;;;;;;3.44;63.99;100646.68;107242;1258;108127;-67
2024/01/02 02:41:42;;;;;;;7.70;4.70;;;;;;;3.35;64.26;100645.23;107224;1257;97839;-66
2024/01/02 02:44:11;;;;;;;9.00;4.80;;;;;;;3.25;64.30;100646.16;107243;1258;97925;-67
2024/01/02 02:46:39;;;;;;;8.50;5.50;;;;;;;3.18;64.39;100644.34;107096;1257;111200;-69
2024/01/02 02:49:08;;;;;;;10.40;5.60;;;;;;;3.09;64.81;100643.74;107245;1260;108328;-69
2024/01/02 02:51:36;;;;;;;8.00;4.80;;;;;;;3.02;65.02;100645.23;107008;1257;108193;-70
2024/01/02 02:54:05;;;;;;;7.10;5.00;;;;;;;2.97;64.91;100641.45;107101;1257;97899;-69
2024/01/02 02:56:33;;;;;;;8.70;5.20;;;;;;;2.92;65.01;100644.60;107288;1256;98482;-68
2024/01/02 02:59:02;;;;;;;10.70;5.30;;;;;;;2.87;64.94;100638.84;107230;1256;112139;-69
2024/01/02 03:01:31;;;;;;;12.70;5.60;;;;;;;2.83;65.05;100640.65;107190;1254;108901;-68
2024/01/02 03:04:00;;;;;;;13.00;6.80;;;;;;;2.79;65.28;100640.90;107078;1256;107823;-70
2024/01/02 03:06:28;;;;;;;14.40;6.70;;;;;;;2.75;65.34;100642.21;107222;1257;97855;-69
2024/01/02 03:08:57;;;;;;;10.70;5.40;;;;;;;2.70;65.44;100633.85;107281;1256;97834;-68
2024/01/02 03:11:25;;;;;;;10.60;5.90;;;;;;;2.64;65.62;100632.36;107294;1257;111967;-67
2024/01/02 03:13:54;;;;;;;16.40;6.70;;;;;;;2.58;65.72;100630.11;107278;1257;108499;-67
2024/01/02 03:16:24;;;;;;;10.30;5.40;;;;;;;2.53;65.86;100630.19;107249;1257;108646;-67
2024/01/02 03:18:52;;;;;;;12.90;5.50;;;;;;;2.46;66.04;100630.40;107211;1257;97835;-68
2024/01/02 03:21:27;;;;;;;9.60;4.90;;;;;;;2.45;66.14;100619.13;107243;1256;98371;-67
2024/01/02 03:23:56;;;;;;;9.50;5.10;;;;;;;2.46;66.23;100616.42;107138;1257;111715;-68
2024/01/02 03:26:24;;;;;;;7.80;4.10;;;;;;;2.50;66.58;100617.93;107225;1257;107682;-67
2024/01/02 03:28:53;;;;;;;7.80;4.30;;;;;;;2.58;67.04;100622.27;107209;1257;107789;-68
2024/01/02 03:31:21;;;;;;;6.40;2.60;;;;;;;2.68;67.14;100618.52;107231;1257;97832;-67
2024/01/02 03:33:50;;;;;;;8.10;3.60;;;;;;;2.86;67.38;100615.00;107142;1257;98366;-68
2024/01/02 03:36:19;;;;;;;5.90;3.70;;;;;;;3.10;67.40;100610.96;107066;1257;111691;-69
2024/01/02 03:38:49;;;;;;;7.00;3.70;;;;;;;3.23;66.98;100614.55;107209;1257;109306;-68
2024/01/02 03:41:18;;;;;;;6.80;4.00;;;;;;;3.25;66.85;100617.11;107020;1262;107534;-69
2024/01/02 03:43:46;;;;;;;6.90;3.20;;;;;;;3.23;66.69;100625.39;107110;1257;98040;-68
2024/01/02 03:46:15;;;;;;;7.50;4.10;;;;;;;3.23;67.06;100624.55;107219;1257;98460;-68
2024/01/02 03:48:43;;;;;;;7.30;4.30;;;;;;;3.24;67.01;100628.90;107265;1257;110850;-70
2024/01/02 03:51:12;;;;;;;7.20;3.90;;;;;;;3.26;67.19;100628.77;107197;1257;108372;-67
2024/01/02 03:53:40;;;;;;;5.80;3.50;;;;;;;3.30;67.18;100633.50;107267;1255;108613;-66
2024/01/02 03:56:11;;;;;;;5.50;3.30;;;;;;;3.31;66.97;100635.73;107266;1257;97873;-68
2024/01/02 03:58:39;;;;;;;6.00;3.40;;;;;;;3.34;66.97;100638.55;107270;1257;97835;-67
2024/01/02 04:01:08;;;;;;;8.60;4.00;;;;;;;3.36;67.09;100637.77;107285;1257;112060;-68
2024/01/02 04:03:36;;;;;;;7.50;4.20;;;;;;;3.35;67.06;100640.60;107276;1257;107767;-67
2024/01/02 04:06:05;;;;;;;3.30;2.60;;;;;;;3.34;67.00;100637.84;107242;1257;108839;-68
2024/01/02 04:08:37;;;;;;;6.90;3.70;;;;;;;3.34;66.95;100641.04;107296;1257;97936;-67
2024/01/02 04:11:05;;;;;;;3.60;2.40;;;;;;;3.38;66.54;100640.13;107253;1255;98479;-69
2024/01/02 04:13:33;;;;;;;2.60;2.00;;;;;;;3.45;66.22;100637.71;107248;1257;111931;-69
2024/01/02 04:16:04;;;;;;;3.40;2.10;;;;;;;3.61;65.62;100639.45;107052;1257;107931;-68
2024/01/02 04:18:32;;;;;;;1.90;1.30;;;;;;;3.77;64.92;100638.05;107180;1260;108586;-69
2024/01/02 04:21:01;;;;;;;2.70;1.90;;;;;;;3.94;64.18;100640.58;107167;1257;97927;-69
2024/01/02 04:23:29;;;;;;;4.70;1.80;;;;;;;4.09;63.54;100633.23;107204;1257;99520;-68
2024/01/02 04:25:57;;;;;;;2.30;1.50;;;;;;;4.21;63.50;100631.07;107219;1260;111034;-68
2024/01/02 04:28:26;;;;;;;4.80;1.80;;;;;;;4.28;63.08;100628.33;107286;1257;107281;-67
2024/01/02 04:30:54;;;;;;;1.90;1.40;;;;;;;4.32;63.07;100632.11;107182;1258;107783;-68
2024/01/02 04:33:23;;;;;;;2.20;1.60;;;;;;;4.36;62.95;100635.77;107276;1260;97826;-67
2024/01/02 04:35:51;;;;;;;2.20;1.60;;;;;;;4.39;63.02;100636.30;107291;1257;98063;-69
2024/01/02 04:38:20;;;;;;;3.60;1.90;;;;;;;4.39;63.09;100631.30;107248;1259;111001;-68
2024/01/02 04:40:48;;;;;;;3.30;2.30;;;;;;;4.37;62.97;100631.60;107128;1257;108212;-68
2024/01/02 04:43:16;;;;;;;7.00;2.80;;;;;;;4.33;63.02;100637.21;107269;1257;107358;-67
2024/01/02 04:45:45;;;;;;;7.40;3.10;;;;;;;4.28;63.03;100637.58;107240;1256;97833;-69
2024/01/02 04:48:13;;;;;;;7.60;2.50;;;;;;;4.23;63.32;100637.30;107226;1257;98503;-68
2024/01/02 04:50:42;;;;;;;4.90;2.30;;;;;;;4.20;63.20;100637.48;107282;1257;111458;-69
2024/01/02 04:53:10;;;;;;;4.10;1.90;;;;;;;4.19;63.09;100636.72;107255;1257;107776;-69
2024/01/02 04:55:38;;;;;;;2.60;1.60;;;;;;;4.18;62.88;100638.72;107285;1257;107778;-68
2024/01/02 04:58:06;;;;;;;3.00;1.70;;;;;;;4.22;62.67;100635.59;107249;1257;97944;-67
2024/01/02 05:00:35;;;;;;;3.00;1.40;;;;;;;4.28;62.38;100633.32;107316;1257;98377;-67
2024/01/02 05:03:04;;;;;;;5.40;1.80;;;;;;;4.31;62.39;100629.19;107295;1257;111513;-67
2024/01/02 05:05:32;;;;;;;2.40;1.80;;;;;;;4.34;62.05;100628.96;107280;1258;108621;-67
2024/01/02 05:08:01;;;;;;;3.10;1.70;;;;;;;4.37;61.77;100627.00;107183;1256;108087;-68
2024/01/02 05:10:30;;;;;;;1.90;1.30;;;;;;;4.39;61.87;100631.69;107255;1257;97931;-68
2024/01/02 05:12:58;;;;;;;5.60;1.90;;;;;;;4.40;61.77;100633.60;107280;1257;97854;-69
2024/01/02 05:15:26;;;;;;;4.10;1.70;;;;;;;4.39;61.70;100632.77;107052;1257;110969;-69
2024/01/02 05:17:55;;;;;;;2.70;1.40;;;;;;;4.39;61.78;100631.17;107260;1257;108504;-69
2024/01/02 05:20:23;;;;;;;3.20;1.90;;;;;;;4.38;61.57;100628.36;107285;1256;107284;-69
2024/01/02 05:22:52;;;;;;;3.60;1.80;;;;;;;4.37;61.86;100630.20;107254;1256;97733;-68
2024/01/02 05:25:37;;;;;;;3.80;2.40;;;;;;;4.35;61.63;100633.70;107263;1257;97835;-68
2024/01/02 05:28:05;;;;;;;8.40;2.60;;;;;;;4.31;61.83;100636.27;107257;1257;112109;-68
2024/01/02 05:30:34;;;;;;;5.80;2.10;;;;;;;4.29;61.70;100630.93;107291;1257;108280;-68
2024/01/02 05:33:03;;;;;;;2.60;1.60;;;;;;;4.30;61.80;100628.91;107124;1262;108154;-68
2024/01/02 05:35:32;;;;;;;2.70;2.20;;;;;;;4.30;61.89;100632.77;107263;1259;97945;-68
2024/01/02 05:38:02;;;;;;;2.60;1.80;;;;;;;4.33;61.68;100636.19;107103;1255;97792;-67
2024/01/02 05:40:31;;;;;;;3.80;2.10;;;;;;;4.35;61.41;100639.92;107268;1258;111763;-67
2024/01/02 05:42:59;;;;;;;3.30;1.60;;;;;;;4.36;61.58;100645.90;107232;1257;107446;-67
2024/01/02 05:45:27;;;;;;;4.20;2.40;;;;;;;4.35;61.33;100651.14;107293;1257;107416;-68
2024/01/02 05:47:56;;;;;;;4.10;2.00;;;;;;;4.34;61.61;100654.39;107277;1257;97870;-68
2024/01/02 05:50:24;;;;;;;6.80;2.20;;;;;;;4.33;61.62;100659.09;107316;1257;98524;-68
2024/01/02 05:52:53;;;;;;;4.60;2.30;;;;;;;4.32;61.98;100667.10;107298;1257;112001;-68
2024/01/02 05:55:21;;;;;;;7.00;2.50;;;;;;;4.33;61.89;100664.02;107265;1257;108498;-69
2024/01/02 05:57:49;;;;;;;4.80;2.30;;;;;;;4.32;61.65;100671.94;107253;1257;108513;-68
2024/01/02 06:00:18;;;;;;;10.40;3.10;;;;;;;4.25;61.71;100671.84;107218;1259;97838;-69
2024/01/02 06:02:46;;;;;;;8.70;2.90;;;;;;;4.20;61.83;100678.03;107328;1255;98353;-68
2024/01/02 06:05:16;;;;;;;4.00;2.20;;;;;;;4.15;62.09;100679.77;107090;1257;111182;-69
2024/01/02 06:07:45;;;;;;;2.80;1.90;;;;;;;4.11;62.09;100681.77;107179;1257;107138;-68
2024/01/02 06:10:14;;;;;;;3.70;1.90;;;;;;;4.11;62.30;100686.20;107245;1256;108358;-67
2024/01/02 06:12:42;;;;;;;2.60;1.80;;;;;;;4.10;62.33;100689.80;107293;1257;97888;-67
2024/01/02 06:15:13;;;;;;;5.10;2.20;;;;;;;4.10;62.39;100688.76;107272;1256;97769;-67
2024/01/02 06:17:46;;;;;;;6.60;3.60;;;;;;;4.12;62.43;100686.17;107231;1257;111225;-68
2024/01/02 06:20:14;;;;;;;4.30;2.60;;;;;;;4.13;62.90;100686.98;107179;1257;108006;-70
2024/01/02 06:22:43;;;;;;;10.90;3.00;;;;;;;4.14;63.49;100689.58;107233;1257;108232;-69
2024/01/02 06:25:12;;;;;;;15.00;3.20;;;;;;;4.18;63.44;100690.88;107230;1257;97855;-68
2024/01/02 06:27:40;;;;;;;7.40;3.50;;;;;;;4.23;63.40;100690.97;107280;1256;98376;-68
2024/01/02 06:30:09;;;;;;;23.00;7.80;;;;;;;4.23;63.33;100688.78;107265;1257;111725;-68
2024/01/02 06:32:38;;;;;;;11.30;5.00;;;;;;;4.25;62.78;100686.77;107285;1257;108644;-69
2024/01/02 06:35:06;;;;;;;13.00;5.80;;;;;;;4.27;62.37;100690.55;107249;1257;106538;-68
2024/01/02 06:37:35;;;;;;;11.50;4.70;;;;;;;4.28;62.24;100690.83;107257;1257;97975;-68
2024/01/02 06:40:06;;;;;;;9.00;4.90;;;;;;;4.30;62.14;100691.71;107275;1256;97950;-68
2024/01/02 06:42:35;;;;;;;8.10;4.30;;;;;;;4.34;61.82;100682.11;107263;1255;111389;-68
2024/01/02 06:45:04;;;;;;;3.10;2.20;;;;;;;4.37;61.65;100681.33;107306;1257;108649;-68
2024/01/02 06:47:32;;;;;;;7.40;1.90;;;;;;;4.43;61.40;100681.69;107294;1256;108538;-67
2024/01/02 06:50:01;;;;;;;4.20;2.10;;;;;;;4.48;61.47;100682.08;107260;1257;97887;-67
2024/01/02 06:52:30;;;;;;;4.20;2.10;;;;;;;4.53;61.25;100684.75;107339;1257;97737;-67
2024/01/02 06:54:58;;;;;;;3.40;2.20;;;;;;;4.59;61.03;100685.11;107293;1257;111671;-69
2024/01/02 06:57:26;;;;;;;7.90;3.80;;;;;;;4.64;61.02;100685.65;107310;1257;108504;-69
2024/01/02 06:59:55;;;;;;;10.60;4.00;;;;;;;4.68;61.10;100688.45;107277;1257;106981;-68
2024/01/02 07:02:23;;;;;;;6.90;3.60;;;;;;;4.68;61.18;100693.04;107287;1256;97910;-69
2024/01/02 07:04:52;;;;;;;10.40;3.60;;;;;;;4.66;61.19;100696.52;107323;1257;98360;-70
2024/01/02 07:07:20;;;;;;;8.30;3.60;;;;;;;4.66;61.16;100696.21;106920;1257;111512;-69
2024/01/02 07:09:48;;;;;;;9.20;3.60;;;;;;;4.66;61.32;100696.94;107305;1256;107761;-68
2024/01/02 07:12:17;;;;;;;10.90;4.00;;;;;;;4.67;61.38;100705.23;107273;1255;107673;-68
2024/01/02 07:14:47;;;;;;;13.40;4.80;;;;;;;4.66;61.61;100702.24;107331;1257;98115;-68
2024/01/02 07:17:19;;;;;;;20.60;5.70;;;;;;;4.65;61.63;100704.63;107315;1257;97868;-67
2024/01/02 07:19:48;;;;;;;20.30;5.60;;;;;;;4.64;61.96;100705.75;107325;1257;109840;-68
2024/01/02 07:22:16;;;;;;;8.90;4.00;;;;;;;4.62;61.89;100705.31;107089;1257;108720;-68
2024/01/02 07:24:44;;;;;;;13.60;4.60;;;;;;;4.62;61.72;100710.48;107277;1257;109421;-68
2024/01/02 07:27:14;;;;;;;14.10;4.40;;;;;;;4.61;61.80;100711.06;107267;1259;97861;-68
2024/01/02 07:29:42;;;;;;;9.30;4.60;;;;;;;4.63;61.88;100711.83;107296;1257;97817;-68
2024/01/02 07:32:11;;;;;;;13.00;5.20;;;;;;;4.64;62.18;100711.40;107238;1255;111986;-68
2024/01/02 07:34:39;;;;;;;15.50;4.20;;;;;;;4.66;62.26;100714.15;107313;1257;108712;-68
2024/01/02 07:37:08;;;;;;;9.80;5.90;;;;;;;4.65;62.33;100714.02;107269;1257;108265;-68
2024/01/02 07:39:38;;;;;;;10.20;6.00;;;;;;;4.67;62.25;100708.89;107299;1257;97842;-68
2024/01/02 07:42:08;;;;;;;13.70;3.70;;;;;;;4.73;61.98;100707.48;107343;1255;98361;-69
2024/01/02 07:44:37;;;;;;;7.20;4.00;;;;;;;4.81;61.77;100712.48;107133;1256;111233;-68
2024/01/02 07:47:06;;;;;;;8.20;4.40;;;;;;;4.87;61.48;100710.32;107084;1257;108232;-68
2024/01/02 07:49:34;;;;;;;6.80;3.20;;;;;;;4.93;61.40;100714.14;107316;1255;107185;-69
2024/01/02 07:52:03;;;;;;;10.20;5.20;;;;;;;5.00;61.39;100706.61;107401;1257;97912;-69
2024/01/02 07:54:37;;;;;;;8.40;4.70;;;;;;;5.08;60.71;100713.05;107343;1256;97853;-69
2024/01/02 07:57:06;;;;;;;12.10;3.90;;;;;;;5.15;60.17;100716.27;107341;1256;113549;-70
2024/01/02 07:59:38;;;;;;;10.70;4.40;;;;;;;5.22;60.16;100724.74;107357;1256;108585;-69
2024/01/02 08:02:06;;;;;;;10.50;4.90;;;;;;;5.29;60.14;100727.48;107283;1257;109447;-68
2024/01/02 08:04:35;;;;;;;14.50;4.10;;;;;;;5.35;60.15;100727.39;107315;1259;97951;-68
2024/01/02 08:07:04;;;;;;;8.30;4.40;;;;;;;5.45;59.19;100727.30;107376;1257;98367;-68
2024/01/02 08:09:33;;;;;;;13.10;5.20;;;;;;;5.51;58.89;100726.17;107287;1255;111479;-68
2024/01/02 08:12:02;;;;;;;9.70;4.40;;;;;;;5.59;59.13;100725.58;107320;1256;107319;-69
2024/01/02 08:14:31;;;;;;;8.60;4.50;;;;;;;5.70;59.23;100726.61;107302;1257;106387;-69
2024/01/02 08:16:59;;;;;;;15.10;5.00;;;;;;;5.81;58.89;100725.89;107300;1256;98284;-69
2024/01/02 08:19:27;;;;;;;20.10;5.80;;;;;;;5.90;58.41;100726.90;107283;1256;97688;-69
2024/01/02 08:21:56;;;;;;;15.60;5.60;;;;;;;5.97;57.99;100730.11;107279;1256;110657;-68
2024/01/02 08:24:24;;;;;;;12.10;5.40;;;;;;;6.04;57.82;100730.94;107278;1257;107880;-68
2024/01/02 08:26:53;;;;;;;13.60;5.30;;;;;;;6.13;57.98;100729.07;107336;1257;107259;-68
2024/01/02 08:29:21;;;;;;;11.00;5.10;;;;;;;6.22;57.95;100728.59;107243;1256;97858;-68
2024/01/02 08:31:50;;;;;;;14.20;4.90;;;;;;;6.29;57.99;100730.23;107326;1257;98037;-69
2024/01/02 08:34:18;;;;;;;17.10;5.40;;;;;;;6.35;57.72;100728.73;107328;1257;112152;-68
2024/01/02 08:36:47;;;;;;;12.30;5.30;;;;;;;6.39;57.02;100727.16;107335;1257;108813;-69
2024/01/02 08:39:16;;;;;;;16.00;7.20;;;;;;;6.44;57.22;100725.42;107280;1257;108439;-71
2024/01/02 08:41:44;;;;;;;11.50;6.10;;;;;;;6.48;57.21;100719.23;107319;1256;97848;-70
2024/01/02 08:44:12;;;;;;;17.70;7.40;;;;;;;6.54;57.19;100714.39;106635;1255;975059;-69
2024/01/02 08:46:41;;;;;;;14.30;6.20;;;;;;;6.60;57.26;100717.19;107232;1257;111180;-70
2024/01/02 08:49:11;;;;;;;14.80;6.50;;;;;;;6.65;57.21;100721.98;107304;1257;108669;-68
2024/01/02 08:51:40;;;;;;;21.10;6.90;;;;;;;6.70;57.23;100718.91;107079;1258;107865;-68
2024/01/02 08:54:08;;;;;;;17.20;6.90;;;;;;;6.75;56.96;100722.45;107303;1256;97787;-69
2024/01/02 08:56:36;;;;;;;16.40;8.10;;;;;;;6.80;56.62;100722.45;107138;1255;98549;-68
2024/01/02 08:59:05;;;;;;;21.10;7.70;;;;;;;6.85;56.79;100725.83;107349;1257;110906;-68
2024/01/02 09:01:33;;;;;;;19.60;7.40;;;;;;;6.92;56.83;100729.79;106954;1256;108178;-68
2024/01/02 09:04:02;;;;;;;21.50;8.10;;;;;;;6.99;57.10;100724.08;106965;1257;108292;-68
2024/01/02 09:06:34;;;;;;;19.70;9.30;;;;;;;7.07;56.64;100725.30;107275;1255;97861;-69
2024/01/02 09:09:04;;;;;;;26.30;9.60;;;;;;;7.15;56.88;100725.81;107335;1255;97902;-68
2024/01/02 09:11:34;;;;;;;20.30;8.50;;;;;;;7.23;56.69;100726.81;107350;1255;112306;-68
2024/01/02 09:14:03;;;;;;;16.10;7.40;;;;;;;7.31;56.85;100723.52;107278;1257;108627;-69
2024/01/02 09:16:32;;;;;;;21.10;9.60;;;;;;;7.39;56.22;100726.30;107326;1256;108830;-69
2024/01/02 09:19:02;;;;;;;23.60;8.90;;;;;;;7.49;55.53;100726.98;107318;1259;97855;-68
2024/01/02 09:21:31;;;;;;;16.80;7.40;;;;;;;7.58;54.90;100724.32;107294;1257;98418;-68
2024/01/02 09:23:59;;;;;;;15.50;7.40;;;;;;;7.67;54.61;100726.11;107328;1256;111451;-68
2024/01/02 09:26:29;;;;;;;17.70;7.10;;;;;;;7.79;55.05;100720.25;107284;1256;108169;-68
2024/01/02 09:28:57;;;;;;;19.50;6.90;;;;;;;7.91;54.47;100718.40;107295;1257;107636;-68
2024/01/02 09:31:29;;;;;;;17.70;7.10;;;;;;;7.99;52.93;100714.35;107077;1255;97861;-68
2024/01/02 09:33:58;;;;;;;22.50;6.30;;;;;;;8.09;53.06;100715.18;107365;1254;97765;-68
2024/01/02 09:36:29;;;;;;;22.10;7.20;;;;;;;8.23;52.36;100708.04;107112;1257;112226;-69
2024/01/02 09:38:59;;;;;;;15.40;6.70;;;;;;;8.44;52.08;100705.15;107336;1256;108851;-69
2024/01/02 09:41:27;;;;;;;13.20;5.30;;;;;;;8.68;50.87;100700.02;107296;1256;106921;-69
2024/01/02 09:44:23;;;;;;;20.60;6.10;;;;;;;8.80;50.42;100701.18;107306;1255;97922;-69
2024/01/02 09:46:54;;;;;;;15.50;5.80;;;;;;;8.83;49.64;100696.77;107320;1257;97932;-70
2024/01/02 09:49:31;;;;;;;16.60;5.40;;;;;;;8.83;48.82;100697.92;107260;1256;111928;-71
2024/01/02 09:52:17;;;;;;;9.50;4.90;;;;;;;8.81;48.86;100696.47;107330;1256;109065;-71
2024/01/02 09:54:52;;;;;;;15.00;4.70;;;;;;;8.80;48.21;100692.42;107047;1257;107835;-69
2024/01/02 09:57:29;;;;;;;10.10;4.60;;;;;;;8.80;48.31;100688.61;107358;1257;97746;-71
2024/01/02 10:00:11;;;;;;;11.50;4.90;;;;;;;8.80;47.83;100685.77;107366;1255;97718;-69
2024/01/02 10:02:50;;;;;;;15.80;5.00;;;;;;;8.78;47.72;100687.20;107346;1255;112186;-66
2024/01/02 10:05:34;;;;;;;11.90;4.50;;;;;;;8.76;47.74;100681.58;107297;1256;108613;-65
2024/01/02 10:08:06;;;;;;;;;;;;;;;8.74;47.45;100683.25;107319;1257;108306;-65
2024/01/02 10:10:39;;;;;;;11.40;4.40;;;;;;;8.71;47.29;100679.86;107355;1257;97823;-65
2024/01/02 10:13:24;;;;;;;14.70;4.80;;;;;;;8.71;47.17;100676.46;107321;1257;97883;-65
2024/01/02 10:16:03;;;;;;;15.20;5.30;;;;;;;8.73;47.29;100675.23;107163;1257;110664;-65
2024/01/02 10:18:46;;;;;;;13.90;4.50;;;;;;;8.74;47.21;100670.86;107112;1256;107964;-63
2024/01/02 10:21:18;;;;;;;15.40;4.90;;;;;;;8.76;46.87;100666.44;107218;1256;107803;-63
2024/01/02 10:24:31;;;;;;;18.30;4.80;;;;;;;8.78;46.75;100660.75;107261;1256;97922;-65
2024/01/02 10:27:10;;;;;;;12.20;4.80;;;;;;;8.82;46.84;100648.42;107084;1256;98421;-63
2024/01/02 10:29:58;;;;;;;12.70;5.00;;;;;;;8.86;46.26;100648.30;107236;1254;112405;-64
2024/01/02 10:32:43;;;;;;;13.10;5.40;;;;;;;8.90;46.57;100647.08;107213;1257;108485;-63
2024/01/02 10:35:15;;;;;;;;;;;;;;;8.96;46.55;100643.36;107243;1259;106489;-65
2024/01/02 10:38:04;;;;;;;15.30;5.00;;;;;;;9.01;45.90;100640.05;107258;1257;97782;-65
2024/01/02 10:40:33;;;;;;;11.10;4.40;;;;;;;9.10;45.92;100637.39;107169;1260;97954;-63
2024/01/02 10:43:12;;;;;;;14.50;4.70;;;;;;;9.19;45.97;100639.61;107217;1257;111400;-65
2024/01/02 10:45:50;;;;;;;10.60;5.20;;;;;;;9.31;45.57;100630.17;107232;1257;108315;-66
2024/01/02 10:48:42;;;;;;;12.90;4.40;;;;;;;9.46;45.31;100626.42;107148;1256;108402;-65
2024/01/02 10:51:21;;;;;;;11.50;4.10;;;;;;;9.65;45.02;100624.23;107185;1257;97838;-68
2024/01/02 10:54:48;;;;;;;13.40;4.00;;;;;;;9.83;44.26;100624.52;107176;1257;97883;-65
2024/01/02 10:57:42;;;;;;;11.70;3.40;;;;;;;9.97;43.67;100624.47;107187;1259;112269;-66
2024/01/02 11:00:21;;;;;;;10.90;4.00;;;;;;;10.09;42.58;100618.83;106820;1259;107610;-66
2024/01/02 11:03:25;;;;;;;9.50;3.60;;;;;;;10.18;42.57;100619.09;107192;1255;107267;-65
2024/01/02 11:06:08;;;;;;;8.60;3.60;;;;;;;10.27;41.84;100611.81;107038;1256;97864;-65
2024/01/02 11:08:58;;;;;;;8.20;3.40;;;;;;;10.42;42.31;100610.36;107120;1257;97875;-64
2024/01/02 11:11:29;;;;;;;11.00;3.90;;;;;;;10.53;41.53;100612.02;107192;1257;111723;-65
2024/01/02 11:13:59;;;;;;;13.70;3.50;;;;;;;10.55;40.65;100609.64;107253;1256;108111;-63
2024/01/02 11:16:29;;;;;;;11.20;3.20;;;;;;;10.59;41.44;100603.77;107184;1256;107691;-62
2024/01/02 11:18:59;;;;;;;8.70;2.80;;;;;;;10.60;41.40;100597.95;107193;1257;98496;-64
2024/01/02 11:21:51;;;;;;;8.70;2.30;;;;;;;10.55;40.32;100596.56;107205;1259;97754;-62
2024/01/02 11:24:26;;;;;;;6.80;3.00;;;;;;;10.46;40.20;100598.80;107221;1257;111032;-63
2024/01/02 11:27:00;;;;;;;5.70;2.80;;;;;;;10.44;40.17;100596.65;107237;1256;108551;-63
2024/01/02 11:29:35;;;;;;;7.10;2.30;;;;;;;10.46;40.15;100595.65;107202;1256;109200;-62
2024/01/02 11:32:09;;;;;;;18.90;4.50;;;;;;;10.53;40.35;100591.36;107240;1257;97854;-64